sensor_id;sensor_type;location;lat;lon;timestamp;P1;durP1;ratioP1;P2;durP2;ratioP2
68763;SDS011;55754;52.038;5.566;2023-02-11T00:00:32;24.52;;;9.02;;
68763;SDS011;55754;52.038;5.566;2023-02-11T00:03:00;24.88;;;10.18;;
68763;SDS011;55754;52.038;5.566;2023-02-11T00:05:26;31.07;;;11.83;;
68763;SDS011;55754;52.038;5.566;2023-02-11T00:07:52;33.50;;;13.68;;
68763;SDS011;55754;52.038;5.566;2023-02-11T00:10:18;26.10;;;9.32;;
68763;SDS011;55754;52.038;5.566;2023-02-11T00:12:44;20.43;;;6.93;;
68763;SDS011;55754;52.038;5.566;2023-02-11T00:15:09;20.27;;;6.40;;
68763;SDS011;55754;52.038;5.566;2023-02-11T00:17:35;21.73;;;5.73;;
68763;SDS011;55754;52.038;5.566;2023-02-11T00:20:01;17.20;;;5.63;;
68763;SDS011;55754;52.038;5.566;2023-02-11T00:22:27;19.80;;;5.23;;
68763;SDS011;55754;52.038;5.566;2023-02-11T00:24:53;17.02;;;4.78;;
68763;SDS011;55754;52.038;5.566;2023-02-11T00:27:21;18.25;;;5.35;;
68763;SDS011;55754;52.038;5.566;2023-02-11T00:29:49;20.13;;;6.30;;
68763;SDS011;55754;52.038;5.566;2023-02-11T00:32:15;18.63;;;6.85;;
68763;SDS011;55754;52.038;5.566;2023-02-11T00:34:41;19.67;;;6.82;;
68763;SDS011;55754;52.038;5.566;2023-02-11T00:37:07;23.92;;;6.05;;
68763;SDS011;55754;52.038;5.566;2023-02-11T00:39:33;18.27;;;5.53;;
68763;SDS011;55754;52.038;5.566;2023-02-11T00:41:59;15.85;;;5.00;;
68763;SDS011;55754;52.038;5.566;2023-02-11T00:44:24;18.20;;;5.50;;
68763;SDS011;55754;52.038;5.566;2023-02-11T00:46:50;22.67;;;5.30;;
68763;SDS011;55754;52.038;5.566;2023-02-11T00:49:20;15.00;;;5.43;;
68763;SDS011;55754;52.038;5.566;2023-02-11T00:51:45;18.85;;;5.55;;
68763;SDS011;55754;52.038;5.566;2023-02-11T00:54:11;17.33;;;5.53;;
68763;SDS011;55754;52.038;5.566;2023-02-11T00:56:37;18.35;;;5.68;;
68763;SDS011;55754;52.038;5.566;2023-02-11T00:59:03;20.63;;;6.00;;
68763;SDS011;55754;52.038;5.566;2023-02-11T01:01:29;19.97;;;5.63;;
68763;SDS011;55754;52.038;5.566;2023-02-11T01:03:54;21.98;;;4.90;;
68763;SDS011;55754;52.038;5.566;2023-02-11T01:06:20;17.73;;;4.73;;
68763;SDS011;55754;52.038;5.566;2023-02-11T01:08:46;17.05;;;5.63;;
68763;SDS011;55754;52.038;5.566;2023-02-11T01:11:13;18.17;;;5.37;;
68763;SDS011;55754;52.038;5.566;2023-02-11T01:13:41;16.88;;;5.10;;
68763;SDS011;55754;52.038;5.566;2023-02-11T01:16:07;14.67;;;4.93;;
68763;SDS011;55754;52.038;5.566;2023-02-11T01:18:35;16.95;;;5.05;;
68763;SDS011;55754;52.038;5.566;2023-02-11T01:21:03;17.35;;;5.05;;
68763;SDS011;55754;52.038;5.566;2023-02-11T01:23:29;20.33;;;5.53;;
68763;SDS011;55754;52.038;5.566;2023-02-11T01:25:55;19.03;;;5.07;;
68763;SDS011;55754;52.038;5.566;2023-02-11T01:28:22;16.95;;;5.13;;
68763;SDS011;55754;52.038;5.566;2023-02-11T01:30:49;16.73;;;4.78;;
68763;SDS011;55754;52.038;5.566;2023-02-11T01:33:15;18.27;;;5.13;;
68763;SDS011;55754;52.038;5.566;2023-02-11T01:35:41;18.60;;;4.65;;
68763;SDS011;55754;52.038;5.566;2023-02-11T01:38:13;15.50;;;4.82;;
68763;SDS011;55754;52.038;5.566;2023-02-11T01:41:04;20.25;;;4.93;;
68763;SDS011;55754;52.038;5.566;2023-02-11T01:43:36;20.52;;;4.93;;
68763;SDS011;55754;52.038;5.566;2023-02-11T01:46:14;16.67;;;4.70;;
68763;SDS011;55754;52.038;5.566;2023-02-11T01:48:48;17.17;;;4.57;;
68763;SDS011;55754;52.038;5.566;2023-02-11T01:51:26;19.15;;;5.57;;
68763;SDS011;55754;52.038;5.566;2023-02-11T01:54:09;19.40;;;4.82;;
68763;SDS011;55754;52.038;5.566;2023-02-11T01:56:59;16.23;;;4.03;;
68763;SDS011;55754;52.038;5.566;2023-02-11T01:59:46;19.50;;;4.87;;
68763;SDS011;55754;52.038;5.566;2023-02-11T02:08:24;15.23;;;3.92;;
68763;SDS011;55754;52.038;5.566;2023-02-11T02:11:21;18.38;;;4.43;;
68763;SDS011;55754;52.038;5.566;2023-02-11T02:13:46;19.77;;;4.40;;
68763;SDS011;55754;52.038;5.566;2023-02-11T02:16:14;21.20;;;4.60;;
68763;SDS011;55754;52.038;5.566;2023-02-11T02:24:16;20.65;;;4.90;;
68763;SDS011;55754;52.038;5.566;2023-02-11T02:38:20;15.68;;;4.78;;
68763;SDS011;55754;52.038;5.566;2023-02-11T02:40:56;19.33;;;5.07;;
68763;SDS011;55754;52.038;5.566;2023-02-11T02:43:35;15.27;;;4.50;;
68763;SDS011;55754;52.038;5.566;2023-02-11T02:46:09;18.83;;;4.97;;
68763;SDS011;55754;52.038;5.566;2023-02-11T02:48:37;14.85;;;4.88;;
68763;SDS011;55754;52.038;5.566;2023-02-11T02:51:14;16.97;;;4.90;;
68763;SDS011;55754;52.038;5.566;2023-02-11T03:05:37;18.17;;;4.70;;
68763;SDS011;55754;52.038;5.566;2023-02-11T03:08:24;17.58;;;4.90;;
68763;SDS011;55754;52.038;5.566;2023-02-11T03:11:09;17.27;;;4.60;;
68763;SDS011;55754;52.038;5.566;2023-02-11T03:13:38;21.45;;;5.63;;
68763;SDS011;55754;52.038;5.566;2023-02-11T03:16:11;21.27;;;5.53;;
68763;SDS011;55754;52.038;5.566;2023-02-11T03:18:48;18.60;;;5.53;;
68763;SDS011;55754;52.038;5.566;2023-02-11T03:21:18;16.42;;;5.05;;
68763;SDS011;55754;52.038;5.566;2023-02-11T03:23:54;15.43;;;4.93;;
68763;SDS011;55754;52.038;5.566;2023-02-11T03:26:30;18.33;;;5.50;;
68763;SDS011;55754;52.038;5.566;2023-02-11T03:29:01;19.40;;;5.27;;
68763;SDS011;55754;52.038;5.566;2023-02-11T03:31:38;18.02;;;5.15;;
68763;SDS011;55754;52.038;5.566;2023-02-11T03:34:18;17.20;;;5.70;;
68763;SDS011;55754;52.038;5.566;2023-02-11T03:36:51;16.42;;;5.43;;
68763;SDS011;55754;52.038;5.566;2023-02-11T03:39:28;15.18;;;6.20;;
68763;SDS011;55754;52.038;5.566;2023-02-11T03:42:00;18.53;;;6.13;;
68763;SDS011;55754;52.038;5.566;2023-02-11T03:44:28;18.38;;;5.70;;
68763;SDS011;55754;52.038;5.566;2023-02-11T03:46:58;17.65;;;6.05;;
68763;SDS011;55754;52.038;5.566;2023-02-11T03:49:28;21.30;;;6.05;;
68763;SDS011;55754;52.038;5.566;2023-02-11T03:51:55;19.77;;;5.95;;
68763;SDS011;55754;52.038;5.566;2023-02-11T03:54:28;17.97;;;6.40;;
68763;SDS011;55754;52.038;5.566;2023-02-11T03:56:55;22.20;;;6.72;;
68763;SDS011;55754;52.038;5.566;2023-02-11T03:59:24;19.05;;;6.25;;
68763;SDS011;55754;52.038;5.566;2023-02-11T04:01:49;19.73;;;6.63;;
68763;SDS011;55754;52.038;5.566;2023-02-11T04:04:18;20.70;;;6.10;;
68763;SDS011;55754;52.038;5.566;2023-02-11T04:06:51;14.82;;;6.07;;
68763;SDS011;55754;52.038;5.566;2023-02-11T04:09:17;26.25;;;6.82;;
68763;SDS011;55754;52.038;5.566;2023-02-11T04:11:42;18.63;;;6.87;;
68763;SDS011;55754;52.038;5.566;2023-02-11T04:14:08;21.50;;;7.13;;
68763;SDS011;55754;52.038;5.566;2023-02-11T04:16:33;21.40;;;7.00;;
68763;SDS011;55754;52.038;5.566;2023-02-11T04:18:59;21.80;;;6.53;;
68763;SDS011;55754;52.038;5.566;2023-02-11T04:21:25;21.90;;;7.50;;
68763;SDS011;55754;52.038;5.566;2023-02-11T04:23:51;27.13;;;7.57;;
68763;SDS011;55754;52.038;5.566;2023-02-11T04:26:17;24.50;;;7.22;;
68763;SDS011;55754;52.038;5.566;2023-02-11T04:28:44;19.45;;;6.88;;
68763;SDS011;55754;52.038;5.566;2023-02-11T04:31:10;20.27;;;7.83;;
68763;SDS011;55754;52.038;5.566;2023-02-11T04:33:36;23.23;;;7.25;;
68763;SDS011;55754;52.038;5.566;2023-02-11T04:36:05;20.95;;;7.35;;
68763;SDS011;55754;52.038;5.566;2023-02-11T04:38:34;23.35;;;7.47;;
68763;SDS011;55754;52.038;5.566;2023-02-11T04:40:59;22.17;;;7.37;;
68763;SDS011;55754;52.038;5.566;2023-02-11T04:43:25;25.02;;;7.63;;
68763;SDS011;55754;52.038;5.566;2023-02-11T04:45:50;22.03;;;8.20;;
68763;SDS011;55754;52.038;5.566;2023-02-11T04:48:16;19.13;;;7.30;;
68763;SDS011;55754;52.038;5.566;2023-02-11T04:50:42;21.07;;;7.57;;
68763;SDS011;55754;52.038;5.566;2023-02-11T04:53:07;17.97;;;7.50;;
68763;SDS011;55754;52.038;5.566;2023-02-11T04:55:33;28.02;;;9.60;;
68763;SDS011;55754;52.038;5.566;2023-02-11T04:57:58;27.60;;;8.53;;
68763;SDS011;55754;52.038;5.566;2023-02-11T05:00:24;20.33;;;8.20;;
68763;SDS011;55754;52.038;5.566;2023-02-11T05:02:49;19.42;;;8.00;;
68763;SDS011;55754;52.038;5.566;2023-02-11T05:05:15;23.73;;;8.17;;
68763;SDS011;55754;52.038;5.566;2023-02-11T05:07:40;21.13;;;8.00;;
68763;SDS011;55754;52.038;5.566;2023-02-11T05:10:06;22.25;;;8.38;;
68763;SDS011;55754;52.038;5.566;2023-02-11T05:12:32;24.47;;;8.03;;
68763;SDS011;55754;52.038;5.566;2023-02-11T05:14:57;21.97;;;8.67;;
68763;SDS011;55754;52.038;5.566;2023-02-11T05:17:23;22.23;;;8.30;;
68763;SDS011;55754;52.038;5.566;2023-02-11T05:19:48;26.23;;;8.97;;
68763;SDS011;55754;52.038;5.566;2023-02-11T05:22:14;26.23;;;9.10;;
68763;SDS011;55754;52.038;5.566;2023-02-11T05:24:39;23.77;;;8.95;;
68763;SDS011;55754;52.038;5.566;2023-02-11T05:27:08;22.70;;;8.90;;
68763;SDS011;55754;52.038;5.566;2023-02-11T05:29:34;23.85;;;9.10;;
68763;SDS011;55754;52.038;5.566;2023-02-11T05:31:59;23.97;;;9.73;;
68763;SDS011;55754;52.038;5.566;2023-02-11T05:34:25;21.10;;;8.70;;
68763;SDS011;55754;52.038;5.566;2023-02-11T05:36:50;23.03;;;9.57;;
68763;SDS011;55754;52.038;5.566;2023-02-11T05:39:16;25.27;;;10.10;;
68763;SDS011;55754;52.038;5.566;2023-02-11T05:41:42;25.80;;;10.17;;
68763;SDS011;55754;52.038;5.566;2023-02-11T05:44:10;28.55;;;13.40;;
68763;SDS011;55754;52.038;5.566;2023-02-11T05:46:36;35.37;;;15.77;;
68763;SDS011;55754;52.038;5.566;2023-02-11T05:49:01;40.83;;;17.23;;
68763;SDS011;55754;52.038;5.566;2023-02-11T05:51:27;33.85;;;14.48;;
68763;SDS011;55754;52.038;5.566;2023-02-11T05:53:53;33.77;;;14.93;;
68763;SDS011;55754;52.038;5.566;2023-02-11T05:56:18;33.58;;;15.68;;
68763;SDS011;55754;52.038;5.566;2023-02-11T05:58:47;30.60;;;13.27;;
68763;SDS011;55754;52.038;5.566;2023-02-11T06:01:12;38.95;;;18.73;;
68763;SDS011;55754;52.038;5.566;2023-02-11T06:03:38;42.53;;;19.02;;
68763;SDS011;55754;52.038;5.566;2023-02-11T06:06:04;44.23;;;19.87;;
68763;SDS011;55754;52.038;5.566;2023-02-11T06:08:33;50.97;;;21.63;;
68763;SDS011;55754;52.038;5.566;2023-02-11T06:10:58;38.27;;;17.10;;
68763;SDS011;55754;52.038;5.566;2023-02-11T06:13:24;44.70;;;20.50;;
68763;SDS011;55754;52.038;5.566;2023-02-11T06:15:56;39.00;;;16.13;;
68763;SDS011;55754;52.038;5.566;2023-02-11T06:18:22;30.10;;;11.95;;
68763;SDS011;55754;52.038;5.566;2023-02-11T06:20:48;30.97;;;11.73;;
68763;SDS011;55754;52.038;5.566;2023-02-11T06:23:14;33.85;;;12.55;;
68763;SDS011;55754;52.038;5.566;2023-02-11T06:25:39;30.77;;;12.30;;
68763;SDS011;55754;52.038;5.566;2023-02-11T06:28:05;27.90;;;12.47;;
68763;SDS011;55754;52.038;5.566;2023-02-11T06:30:30;32.67;;;12.48;;
68763;SDS011;55754;52.038;5.566;2023-02-11T06:32:56;30.83;;;11.87;;
68763;SDS011;55754;52.038;5.566;2023-02-11T06:35:22;32.00;;;13.40;;
68763;SDS011;55754;52.038;5.566;2023-02-11T06:37:47;31.92;;;12.45;;
68763;SDS011;55754;52.038;5.566;2023-02-11T06:40:13;32.30;;;13.07;;
68763;SDS011;55754;52.038;5.566;2023-02-11T06:42:39;30.60;;;12.30;;
68763;SDS011;55754;52.038;5.566;2023-02-11T06:45:06;30.48;;;12.95;;
68763;SDS011;55754;52.038;5.566;2023-02-11T06:47:35;28.38;;;12.82;;
68763;SDS011;55754;52.038;5.566;2023-02-11T06:50:01;34.20;;;13.65;;
68763;SDS011;55754;52.038;5.566;2023-02-11T06:52:27;34.42;;;13.43;;
68763;SDS011;55754;52.038;5.566;2023-02-11T06:54:53;31.77;;;13.17;;
68763;SDS011;55754;52.038;5.566;2023-02-11T06:57:18;27.95;;;13.50;;
68763;SDS011;55754;52.038;5.566;2023-02-11T06:59:47;32.30;;;13.07;;
68763;SDS011;55754;52.038;5.566;2023-02-11T07:02:13;31.13;;;13.40;;
68763;SDS011;55754;52.038;5.566;2023-02-11T07:04:38;32.17;;;13.70;;
68763;SDS011;55754;52.038;5.566;2023-02-11T07:07:04;33.20;;;12.98;;
68763;SDS011;55754;52.038;5.566;2023-02-11T07:09:30;34.47;;;14.02;;
68763;SDS011;55754;52.038;5.566;2023-02-11T07:11:58;34.57;;;13.90;;
68763;SDS011;55754;52.038;5.566;2023-02-11T07:14:24;30.27;;;13.45;;
68763;SDS011;55754;52.038;5.566;2023-02-11T07:16:50;33.22;;;13.95;;
68763;SDS011;55754;52.038;5.566;2023-02-11T07:19:15;35.53;;;13.63;;
68763;SDS011;55754;52.038;5.566;2023-02-11T07:21:41;34.65;;;14.48;;
68763;SDS011;55754;52.038;5.566;2023-02-11T07:24:09;33.07;;;14.10;;
68763;SDS011;55754;52.038;5.566;2023-02-11T07:26:35;33.67;;;13.88;;
68763;SDS011;55754;52.038;5.566;2023-02-11T07:29:01;35.07;;;14.20;;
68763;SDS011;55754;52.038;5.566;2023-02-11T07:31:27;33.78;;;14.25;;
68763;SDS011;55754;52.038;5.566;2023-02-11T07:33:54;34.08;;;14.25;;
68763;SDS011;55754;52.038;5.566;2023-02-11T07:36:24;35.42;;;14.90;;
68763;SDS011;55754;52.038;5.566;2023-02-11T07:38:50;30.40;;;14.27;;
68763;SDS011;55754;52.038;5.566;2023-02-11T07:41:17;35.42;;;14.63;;
68763;SDS011;55754;52.038;5.566;2023-02-11T07:43:44;34.47;;;13.95;;
68763;SDS011;55754;52.038;5.566;2023-02-11T07:46:20;32.55;;;13.95;;
68763;SDS011;55754;52.038;5.566;2023-02-11T07:48:48;34.45;;;14.60;;
68763;SDS011;55754;52.038;5.566;2023-02-11T07:51:15;33.70;;;15.00;;
68763;SDS011;55754;52.038;5.566;2023-02-11T07:53:43;35.30;;;14.45;;
68763;SDS011;55754;52.038;5.566;2023-02-11T07:56:09;34.53;;;15.25;;
68763;SDS011;55754;52.038;5.566;2023-02-11T07:58:36;43.27;;;15.00;;
68763;SDS011;55754;52.038;5.566;2023-02-11T08:01:02;32.00;;;14.73;;
68763;SDS011;55754;52.038;5.566;2023-02-11T08:03:30;31.52;;;14.15;;
68763;SDS011;55754;52.038;5.566;2023-02-11T08:05:56;36.85;;;14.82;;
68763;SDS011;55754;52.038;5.566;2023-02-11T08:08:24;32.93;;;14.77;;
68763;SDS011;55754;52.038;5.566;2023-02-11T08:10:51;36.72;;;14.65;;
68763;SDS011;55754;52.038;5.566;2023-02-11T08:13:17;36.17;;;14.48;;
68763;SDS011;55754;52.038;5.566;2023-02-11T08:15:43;35.83;;;15.77;;
68763;SDS011;55754;52.038;5.566;2023-02-11T08:18:09;33.17;;;14.80;;
68763;SDS011;55754;52.038;5.566;2023-02-11T08:20:34;35.77;;;14.30;;
68763;SDS011;55754;52.038;5.566;2023-02-11T08:23:00;37.63;;;15.93;;
68763;SDS011;55754;52.038;5.566;2023-02-11T08:25:26;31.27;;;14.53;;
68763;SDS011;55754;52.038;5.566;2023-02-11T08:27:51;42.78;;;15.93;;
68763;SDS011;55754;52.038;5.566;2023-02-11T08:30:20;39.03;;;14.53;;
68763;SDS011;55754;52.038;5.566;2023-02-11T08:32:45;35.80;;;14.63;;
68763;SDS011;55754;52.038;5.566;2023-02-11T08:35:11;37.83;;;15.33;;
68763;SDS011;55754;52.038;5.566;2023-02-11T08:37:36;34.75;;;14.45;;
68763;SDS011;55754;52.038;5.566;2023-02-11T08:40:02;35.30;;;14.83;;
68763;SDS011;55754;52.038;5.566;2023-02-11T08:42:28;37.45;;;15.02;;
68763;SDS011;55754;52.038;5.566;2023-02-11T08:44:54;42.40;;;16.17;;
68763;SDS011;55754;52.038;5.566;2023-02-11T08:47:19;32.15;;;14.77;;
68763;SDS011;55754;52.038;5.566;2023-02-11T08:49:45;36.93;;;15.17;;
68763;SDS011;55754;52.038;5.566;2023-02-11T08:52:11;30.93;;;14.13;;
68763;SDS011;55754;52.038;5.566;2023-02-11T08:54:36;33.13;;;14.13;;
68763;SDS011;55754;52.038;5.566;2023-02-11T08:57:02;31.47;;;14.37;;
68763;SDS011;55754;52.038;5.566;2023-02-11T08:59:31;31.73;;;14.73;;
68763;SDS011;55754;52.038;5.566;2023-02-11T09:01:57;33.15;;;15.00;;
68763;SDS011;55754;52.038;5.566;2023-02-11T09:04:22;36.13;;;14.17;;
68763;SDS011;55754;52.038;5.566;2023-02-11T09:06:48;30.70;;;14.60;;
68763;SDS011;55754;52.038;5.566;2023-02-11T09:09:14;33.95;;;14.90;;
68763;SDS011;55754;52.038;5.566;2023-02-11T09:11:41;34.88;;;14.57;;
68763;SDS011;55754;52.038;5.566;2023-02-11T09:14:10;34.70;;;15.30;;
68763;SDS011;55754;52.038;5.566;2023-02-11T09:16:44;31.27;;;14.65;;
68763;SDS011;55754;52.038;5.566;2023-02-11T09:19:11;33.38;;;15.40;;
68763;SDS011;55754;52.038;5.566;2023-02-11T09:21:36;30.00;;;14.87;;
68763;SDS011;55754;52.038;5.566;2023-02-11T09:24:02;35.72;;;15.57;;
68763;SDS011;55754;52.038;5.566;2023-02-11T09:26:29;32.10;;;14.80;;
68763;SDS011;55754;52.038;5.566;2023-02-11T09:28:56;33.00;;;14.87;;
68763;SDS011;55754;52.038;5.566;2023-02-11T09:31:23;32.55;;;15.15;;
68763;SDS011;55754;52.038;5.566;2023-02-11T09:33:51;32.17;;;15.27;;
68763;SDS011;55754;52.038;5.566;2023-02-11T09:36:32;35.30;;;15.05;;
68763;SDS011;55754;52.038;5.566;2023-02-11T09:39:02;37.40;;;14.88;;
68763;SDS011;55754;52.038;5.566;2023-02-11T09:44:18;33.55;;;14.95;;
68763;SDS011;55754;52.038;5.566;2023-02-11T09:46:46;28.67;;;14.85;;
68763;SDS011;55754;52.038;5.566;2023-02-11T09:49:24;27.92;;;14.38;;
68763;SDS011;55754;52.038;5.566;2023-02-11T09:52:01;26.80;;;14.25;;
68763;SDS011;55754;52.038;5.566;2023-02-11T09:55:16;29.00;;;14.20;;
68763;SDS011;55754;52.038;5.566;2023-02-11T09:57:22;30.42;;;14.52;;
68763;SDS011;55754;52.038;5.566;2023-02-11T09:59:54;30.48;;;14.20;;
68763;SDS011;55754;52.038;5.566;2023-02-11T10:02:26;29.40;;;14.55;;
68763;SDS011;55754;52.038;5.566;2023-02-11T10:10:58;30.90;;;14.60;;
68763;SDS011;55754;52.038;5.566;2023-02-11T10:16:19;27.63;;;13.60;;
68763;SDS011;55754;52.038;5.566;2023-02-11T10:22:17;30.63;;;13.67;;
68763;SDS011;55754;52.038;5.566;2023-02-11T10:24:55;31.20;;;14.15;;
68763;SDS011;55754;52.038;5.566;2023-02-11T10:27:26;31.00;;;14.23;;
68763;SDS011;55754;52.038;5.566;2023-02-11T10:30:03;25.73;;;14.02;;
68763;SDS011;55754;52.038;5.566;2023-02-11T10:32:43;28.05;;;13.80;;
68763;SDS011;55754;52.038;5.566;2023-02-11T10:35:19;31.73;;;14.70;;
68763;SDS011;55754;52.038;5.566;2023-02-11T10:37:55;27.05;;;14.10;;
68763;SDS011;55754;52.038;5.566;2023-02-11T10:40:24;28.15;;;14.00;;
68763;SDS011;55754;52.038;5.566;2023-02-11T10:42:54;27.00;;;14.10;;
68763;SDS011;55754;52.038;5.566;2023-02-11T10:45:32;31.77;;;13.98;;
68763;SDS011;55754;52.038;5.566;2023-02-11T10:48:05;28.80;;;13.90;;
68763;SDS011;55754;52.038;5.566;2023-02-11T10:51:06;29.23;;;13.95;;
68763;SDS011;55754;52.038;5.566;2023-02-11T10:53:32;28.05;;;14.05;;
68763;SDS011;55754;52.038;5.566;2023-02-11T10:56:00;26.20;;;13.50;;
68763;SDS011;55754;52.038;5.566;2023-02-11T10:58:30;24.30;;;12.32;;
68763;SDS011;55754;52.038;5.566;2023-02-11T11:01:05;24.63;;;13.20;;
68763;SDS011;55754;52.038;5.566;2023-02-11T11:03:33;24.85;;;12.73;;
68763;SDS011;55754;52.038;5.566;2023-02-11T11:06:09;24.73;;;12.40;;
68763;SDS011;55754;52.038;5.566;2023-02-11T11:08:37;24.07;;;12.30;;
68763;SDS011;55754;52.038;5.566;2023-02-11T11:11:07;23.88;;;12.10;;
68763;SDS011;55754;52.038;5.566;2023-02-11T11:13:38;23.85;;;11.80;;
68763;SDS011;55754;52.038;5.566;2023-02-11T11:16:31;23.15;;;11.68;;
68763;SDS011;55754;52.038;5.566;2023-02-11T11:21:44;21.60;;;11.10;;
68763;SDS011;55754;52.038;5.566;2023-02-11T11:24:22;20.45;;;10.68;;
68763;SDS011;55754;52.038;5.566;2023-02-11T11:26:59;20.73;;;10.38;;
68763;SDS011;55754;52.038;5.566;2023-02-11T11:32:04;23.83;;;10.70;;
68763;SDS011;55754;52.038;5.566;2023-02-11T11:34:48;22.50;;;10.73;;
68763;SDS011;55754;52.038;5.566;2023-02-11T11:37:20;20.98;;;9.95;;
68763;SDS011;55754;52.038;5.566;2023-02-11T11:42:35;18.45;;;9.82;;
68763;SDS011;55754;52.038;5.566;2023-02-11T11:50:28;20.38;;;9.68;;
68763;SDS011;55754;52.038;5.566;2023-02-11T11:58:38;20.05;;;10.55;;
68763;SDS011;55754;52.038;5.566;2023-02-11T12:11:29;28.00;;;13.57;;
68763;SDS011;55754;52.038;5.566;2023-02-11T12:14:23;24.52;;;12.93;;
68763;SDS011;55754;52.038;5.566;2023-02-11T12:22:46;19.80;;;10.53;;
68763;SDS011;55754;52.038;5.566;2023-02-11T12:28:13;18.70;;;9.88;;
68763;SDS011;55754;52.038;5.566;2023-02-11T12:31:05;16.98;;;8.85;;
68763;SDS011;55754;52.038;5.566;2023-02-11T12:45:37;17.40;;;8.73;;
68763;SDS011;55754;52.038;5.566;2023-02-11T12:48:34;17.77;;;9.48;;
68763;SDS011;55754;52.038;5.566;2023-02-11T12:51:46;16.50;;;8.73;;
68763;SDS011;55754;52.038;5.566;2023-02-11T12:54:39;19.95;;;9.18;;
68763;SDS011;55754;52.038;5.566;2023-02-11T12:57:24;18.45;;;8.85;;
68763;SDS011;55754;52.038;5.566;2023-02-11T13:05:39;18.20;;;9.10;;
68763;SDS011;55754;52.038;5.566;2023-02-11T13:08:18;17.33;;;9.40;;
68763;SDS011;55754;52.038;5.566;2023-02-11T13:11:20;18.02;;;9.48;;
68763;SDS011;55754;52.038;5.566;2023-02-11T13:13:56;17.85;;;9.93;;
68763;SDS011;55754;52.038;5.566;2023-02-11T13:16:35;19.38;;;9.40;;
68763;SDS011;55754;52.038;5.566;2023-02-11T13:22:26;17.95;;;9.50;;
68763;SDS011;55754;52.038;5.566;2023-02-11T13:27:42;19.05;;;9.68;;
68763;SDS011;55754;52.038;5.566;2023-02-11T13:35:28;14.93;;;8.57;;
68763;SDS011;55754;52.038;5.566;2023-02-11T13:38:02;16.98;;;9.15;;
68763;SDS011;55754;52.038;5.566;2023-02-11T13:40:36;20.60;;;9.13;;
68763;SDS011;55754;52.038;5.566;2023-02-11T13:43:04;16.20;;;8.55;;
68763;SDS011;55754;52.038;5.566;2023-02-11T13:45:43;16.45;;;8.75;;
68763;SDS011;55754;52.038;5.566;2023-02-11T13:48:19;15.13;;;8.20;;
68763;SDS011;55754;52.038;5.566;2023-02-11T13:50:48;15.93;;;7.80;;
68763;SDS011;55754;52.038;5.566;2023-02-11T13:53:22;17.03;;;7.80;;
68763;SDS011;55754;52.038;5.566;2023-02-11T13:55:49;13.13;;;7.40;;
68763;SDS011;55754;52.038;5.566;2023-02-11T13:58:25;16.13;;;7.78;;
68763;SDS011;55754;52.038;5.566;2023-02-11T14:01:38;17.90;;;7.90;;
68763;SDS011;55754;52.038;5.566;2023-02-11T14:04:12;14.32;;;8.32;;
68763;SDS011;55754;52.038;5.566;2023-02-11T14:10:52;14.98;;;7.15;;
68763;SDS011;55754;52.038;5.566;2023-02-11T14:16:05;14.13;;;7.03;;
68763;SDS011;55754;52.038;5.566;2023-02-11T14:29:21;11.82;;;5.60;;
68763;SDS011;55754;52.038;5.566;2023-02-11T14:42:25;10.85;;;5.20;;
68763;SDS011;55754;52.038;5.566;2023-02-11T14:44:54;12.57;;;5.25;;
68763;SDS011;55754;52.038;5.566;2023-02-11T14:47:22;11.33;;;5.20;;
68763;SDS011;55754;52.038;5.566;2023-02-11T14:49:54;10.45;;;5.18;;
68763;SDS011;55754;52.038;5.566;2023-02-11T14:52:25;11.38;;;4.80;;
68763;SDS011;55754;52.038;5.566;2023-02-11T14:54:57;11.73;;;4.88;;
68763;SDS011;55754;52.038;5.566;2023-02-11T14:57:31;11.85;;;5.00;;
68763;SDS011;55754;52.038;5.566;2023-02-11T15:00:02;11.73;;;5.27;;
68763;SDS011;55754;52.038;5.566;2023-02-11T15:02:34;11.55;;;4.65;;
68763;SDS011;55754;52.038;5.566;2023-02-11T15:05:21;9.30;;;4.97;;
68763;SDS011;55754;52.038;5.566;2023-02-11T15:07:52;11.60;;;5.33;;
68763;SDS011;55754;52.038;5.566;2023-02-11T15:10:37;10.50;;;5.10;;
68763;SDS011;55754;52.038;5.566;2023-02-11T15:13:07;15.15;;;5.70;;
68763;SDS011;55754;52.038;5.566;2023-02-11T15:15:33;12.38;;;6.05;;
68763;SDS011;55754;52.038;5.566;2023-02-11T15:18:01;13.18;;;6.30;;
68763;SDS011;55754;52.038;5.566;2023-02-11T15:20:30;12.00;;;6.47;;
68763;SDS011;55754;52.038;5.566;2023-02-11T15:22:58;16.95;;;5.95;;
68763;SDS011;55754;52.038;5.566;2023-02-11T15:25:32;15.85;;;7.55;;
68763;SDS011;55754;52.038;5.566;2023-02-11T15:27:58;16.13;;;6.80;;
68763;SDS011;55754;52.038;5.566;2023-02-11T15:30:25;12.57;;;6.50;;
68763;SDS011;55754;52.038;5.566;2023-02-11T15:32:57;14.32;;;5.97;;
68763;SDS011;55754;52.038;5.566;2023-02-11T15:35:28;11.80;;;5.70;;
68763;SDS011;55754;52.038;5.566;2023-02-11T15:38:03;11.52;;;5.72;;
68763;SDS011;55754;52.038;5.566;2023-02-11T15:40:30;16.30;;;5.93;;
68763;SDS011;55754;52.038;5.566;2023-02-11T15:43:02;11.23;;;6.00;;
68763;SDS011;55754;52.038;5.566;2023-02-11T15:45:36;13.52;;;5.93;;
68763;SDS011;55754;52.038;5.566;2023-02-11T15:48:08;12.10;;;5.40;;
68763;SDS011;55754;52.038;5.566;2023-02-11T15:50:52;10.20;;;5.03;;
68763;SDS011;55754;52.038;5.566;2023-02-11T15:53:30;13.23;;;5.50;;
68763;SDS011;55754;52.038;5.566;2023-02-11T15:56:10;13.87;;;5.37;;
68763;SDS011;55754;52.038;5.566;2023-02-11T15:59:16;10.75;;;4.90;;
68763;SDS011;55754;52.038;5.566;2023-02-11T16:01:50;9.65;;;4.80;;
68763;SDS011;55754;52.038;5.566;2023-02-11T16:04:20;10.23;;;4.90;;
68763;SDS011;55754;52.038;5.566;2023-02-11T16:06:48;10.10;;;4.80;;
68763;SDS011;55754;52.038;5.566;2023-02-11T16:09:21;8.67;;;4.53;;
68763;SDS011;55754;52.038;5.566;2023-02-11T16:11:57;11.95;;;4.90;;
68763;SDS011;55754;52.038;5.566;2023-02-11T16:17:10;11.38;;;4.82;;
68763;SDS011;55754;52.038;5.566;2023-02-11T16:19:46;9.55;;;4.35;;
68763;SDS011;55754;52.038;5.566;2023-02-11T16:22:18;12.67;;;4.80;;
68763;SDS011;55754;52.038;5.566;2023-02-11T16:24:47;11.02;;;4.78;;
68763;SDS011;55754;52.038;5.566;2023-02-11T16:29:45;10.30;;;4.80;;
68763;SDS011;55754;52.038;5.566;2023-02-11T16:34:42;11.17;;;4.97;;
68763;SDS011;55754;52.038;5.566;2023-02-11T16:37:09;9.90;;;4.63;;
68763;SDS011;55754;52.038;5.566;2023-02-11T16:39:35;12.73;;;6.00;;
68763;SDS011;55754;52.038;5.566;2023-02-11T16:42:01;13.50;;;5.93;;
68763;SDS011;55754;52.038;5.566;2023-02-11T16:44:27;14.48;;;6.90;;
68763;SDS011;55754;52.038;5.566;2023-02-11T16:46:53;17.00;;;9.77;;
68763;SDS011;55754;52.038;5.566;2023-02-11T16:49:23;30.55;;;17.88;;
68763;SDS011;55754;52.038;5.566;2023-02-11T16:51:50;95.60;;;52.75;;
68763;SDS011;55754;52.038;5.566;2023-02-11T16:54:18;130.37;;;86.47;;
68763;SDS011;55754;52.038;5.566;2023-02-11T16:56:44;86.40;;;54.80;;
68763;SDS011;55754;52.038;5.566;2023-02-11T16:59:10;61.63;;;38.00;;
68763;SDS011;55754;52.038;5.566;2023-02-11T17:01:36;60.20;;;35.33;;
68763;SDS011;55754;52.038;5.566;2023-02-11T17:04:04;71.77;;;41.47;;
68763;SDS011;55754;52.038;5.566;2023-02-11T17:06:32;33.45;;;19.60;;
68763;SDS011;55754;52.038;5.566;2023-02-11T17:09:06;27.17;;;17.45;;
68763;SDS011;55754;52.038;5.566;2023-02-11T17:11:34;44.35;;;24.77;;
68763;SDS011;55754;52.038;5.566;2023-02-11T17:14:00;100.07;;;52.83;;
68763;SDS011;55754;52.038;5.566;2023-02-11T17:16:25;94.47;;;40.57;;
68763;SDS011;55754;52.038;5.566;2023-02-11T17:18:53;340.92;;;125.50;;